Time;durP1;ratioP1;P1;durP2;ratioP2;P2;SDS_P1;SDS_P2;PMS_P1;PMS_P2;Temp;Humidity;BMP_temperature;BMP_pressure;BME280_temperature;BME280_humidity;BME280_pressure;Samples;Min_cycle;Max_cycle;Signal;HPM_P1;HPM_P2
2021/08/04 00:01:14;;;;;;;6.10;3.53;;;;;;;18.50;92.81;96145.44;5058037;28;20221;-71
2021/08/04 00:03:41;;;;;;;8.25;3.30;;;;;;;18.53;92.83;96137.78;5058944;28;20204;-71
2021/08/04 00:06:07;;;;;;;7.35;3.80;;;;;;;18.52;92.09;96144.16;5057545;28;20201;-71
2021/08/04 00:08:35;;;;;;;7.50;3.85;;;;;;;18.62;92.28;96152.44;5058449;28;20653;-71
2021/08/04 00:11:02;;;;;;;10.23;4.00;;;;;;;18.60;91.59;96154.50;5057632;28;20211;-72
2021/08/04 00:13:28;;;;;;;8.75;4.13;;;;;;;18.51;92.46;96150.53;5059243;28;20189;-71
2021/08/04 00:15:55;;;;;;;5.78;3.65;;;;;;;18.41;92.26;96144.13;5057673;28;20212;-71
2021/08/04 00:18:22;;;;;;;7.72;4.18;;;;;;;18.51;91.71;96139.88;5058574;28;20201;-72
2021/08/04 00:20:49;;;;;;;11.55;4.50;;;;;;;18.62;92.33;96151.59;5057677;28;20635;-72
2021/08/04 00:23:15;;;;;;;7.15;3.60;;;;;;;18.52;92.23;96154.00;5058471;28;20235;-72
2021/08/04 00:25:43;;;;;;;5.78;3.63;;;;;;;18.66;92.27;96150.94;5056938;28;20224;-71
2021/08/04 00:28:10;;;;;;;9.13;4.13;;;;;;;18.56;91.90;96153.34;5058027;28;20657;-72
2021/08/04 00:30:36;;;;;;;9.57;4.05;;;;;;;18.56;92.03;96150.66;5057919;28;20215;-71
2021/08/04 00:33:03;;;;;;;5.00;3.90;;;;;;;18.40;92.38;96143.28;5057874;28;20227;-71
2021/08/04 00:35:29;;;;;;;12.55;4.25;;;;;;;18.11;94.32;96143.25;5056608;28;20669;-71
2021/08/04 00:37:56;;;;;;;8.98;3.92;;;;;;;18.39;93.22;96152.38;5057883;28;20208;-72
2021/08/04 00:40:23;;;;;;;11.32;3.83;;;;;;;18.32;93.40;96152.66;5054942;28;20201;-72
2021/08/04 00:42:51;;;;;;;8.05;4.03;;;;;;;18.58;92.48;96145.94;5057629;28;20224;-71
2021/08/04 00:45:17;;;;;;;8.32;3.67;;;;;;;18.39;92.65;96144.34;5057434;28;20781;-71
2021/08/04 00:47:44;;;;;;;6.22;3.58;;;;;;;18.26;93.25;96146.38;5057759;28;20203;-72
2021/08/04 00:50:11;;;;;;;10.05;3.53;;;;;;;18.33;93.54;96140.97;5057318;28;20201;-72
2021/08/04 00:52:38;;;;;;;7.50;3.63;;;;;;;18.47;93.03;96144.03;5057272;28;20244;-72
2021/08/04 00:55:06;;;;;;;6.50;3.10;;;;;;;18.29;93.12;96134.44;5056935;28;20204;-72
2021/08/04 00:57:33;;;;;;;6.93;3.15;;;;;;;17.86;94.13;96131.91;5056168;28;20207;-72
2021/08/04 01:00:00;;;;;;;10.10;3.67;;;;;;;18.23;93.77;96135.34;5057489;28;20197;-72
2021/08/04 01:02:32;;;;;;;9.85;3.53;;;;;;;18.37;92.85;96141.09;5057458;28;20220;-70
2021/08/04 01:05:05;;;;;;;5.25;3.28;;;;;;;18.25;92.68;96133.28;5057293;28;20228;-72
2021/08/04 01:07:33;;;;;;;5.75;3.30;;;;;;;18.32;92.08;96128.66;5056013;28;20204;-72
2021/08/04 01:10:09;;;;;;;7.03;3.08;;;;;;;18.37;92.55;96125.09;5057934;28;20196;-70
2021/08/04 01:12:41;;;;;;;8.35;3.40;;;;;;;18.36;92.34;96125.31;5057240;28;20247;-72
2021/08/04 01:15:11;;;;;;;11.80;3.67;;;;;;;18.07;93.59;96109.28;5057425;28;20207;-71
2021/08/04 01:17:41;;;;;;;9.93;3.35;;;;;;;18.22;93.24;96115.06;5057269;28;20205;-72
2021/08/04 01:20:13;;;;;;;10.43;3.65;;;;;;;18.31;91.99;96113.72;5057178;28;20208;-71
2021/08/04 01:22:50;;;;;;;16.45;3.05;;;;;;;18.26;92.69;96116.25;5056672;28;20583;-72
2021/08/04 01:25:19;;;;;;;6.07;3.33;;;;;;;18.30;92.82;96125.41;5057574;28;20224;-72
2021/08/04 01:27:49;;;;;;;6.05;3.30;;;;;;;17.92;92.73;96116.88;5056615;28;20205;-71
2021/08/04 01:30:17;;;;;;;11.32;3.50;;;;;;;18.06;92.91;96118.31;5056902;28;20196;-71
2021/08/04 01:32:43;;;;;;;9.57;3.60;;;;;;;17.81;92.38;96109.63;5057323;28;20216;-71
2021/08/04 01:35:11;;;;;;;6.72;3.08;;;;;;;18.01;91.55;96123.50;5057057;28;20201;-72
2021/08/04 01:37:39;;;;;;;12.52;3.35;;;;;;;17.85;92.71;96121.47;5056279;28;20209;-71
2021/08/04 01:40:11;;;;;;;7.70;3.47;;;;;;;18.07;91.03;96118.09;5053683;28;20200;-72
2021/08/04 01:42:38;;;;;;;9.35;3.40;;;;;;;17.97;93.00;96111.66;5056384;28;20314;-72
2021/08/04 01:45:07;;;;;;;5.78;3.28;;;;;;;17.95;92.22;96116.44;5056694;28;21154;-72
2021/08/04 01:47:36;;;;;;;8.73;3.90;;;;;;;18.04;93.51;96113.22;5056079;28;20196;-71
2021/08/04 01:50:03;;;;;;;8.55;3.90;;;;;;;17.88;93.63;96111.19;5057036;28;20197;-72
2021/08/04 01:52:30;;;;;;;8.25;3.70;;;;;;;17.81;92.75;96113.09;5056638;28;20318;-72
2021/08/04 01:54:57;;;;;;;9.93;3.70;;;;;;;17.99;92.79;96112.28;5057061;28;20196;-72
2021/08/04 01:57:24;;;;;;;11.30;3.78;;;;;;;17.68;92.32;96114.31;5055986;28;20293;-72
2021/08/04 01:59:50;;;;;;;10.30;4.00;;;;;;;17.99;92.10;96101.59;5056922;28;20193;-72
2021/08/04 02:02:21;;;;;;;10.40;3.78;;;;;;;18.13;92.90;96103.88;5056375;28;20216;-71
2021/08/04 02:04:47;;;;;;;10.13;4.22;;;;;;;17.93;94.08;96102.50;5056519;28;20771;-70
2021/08/04 02:07:24;;;;;;;6.07;3.67;;;;;;;18.26;92.51;96108.25;5058869;28;20193;-72
2021/08/04 02:09:53;;;;;;;11.00;4.30;;;;;;;18.20;92.43;96114.47;5060108;28;20228;-71
2021/08/04 02:12:21;;;;;;;8.55;4.05;;;;;;;18.24;92.31;96107.63;5059725;28;20224;-71
2021/08/04 02:14:54;;;;;;;6.45;4.18;;;;;;;18.29;92.40;96115.78;5060623;28;20200;-72
2021/08/04 02:17:28;;;;;;;10.13;4.25;;;;;;;18.17;92.38;96114.91;5059018;28;20266;-72
2021/08/04 02:19:58;;;;;;;8.60;3.67;;;;;;;17.91;92.77;96115.25;5060177;28;20200;-71
2021/08/04 02:22:29;;;;;;;9.45;4.07;;;;;;;18.04;92.47;96107.09;5060674;28;20235;-71
2021/08/04 02:25:04;;;;;;;12.20;4.60;;;;;;;18.04;93.22;96105.22;5060054;28;20227;-71
2021/08/04 02:27:32;;;;;;;9.43;4.22;;;;;;;17.97;92.88;96098.34;5060066;28;20666;-72
2021/08/04 02:30:01;;;;;;;10.55;4.20;;;;;;;17.98;93.67;96099.97;5060471;28;20196;-71
2021/08/04 02:32:29;;;;;;;7.47;3.92;;;;;;;17.95;93.49;96103.09;5060055;28;20232;-72
2021/08/04 02:34:56;;;;;;;8.45;4.15;;;;;;;17.81;93.75;96093.66;5059477;28;20201;-71
2021/08/04 02:37:22;;;;;;;6.78;4.20;;;;;;;17.78;93.94;96094.06;5060714;28;20200;-71
2021/08/04 02:39:49;;;;;;;7.30;4.35;;;;;;;17.87;93.55;96093.56;5057332;28;20204;-72
2021/08/04 02:42:15;;;;;;;8.93;4.72;;;;;;;17.86;93.67;96091.13;5059994;28;20227;-71
2021/08/04 02:44:42;;;;;;;9.85;4.55;;;;;;;17.77;92.28;96089.81;5060131;28;20200;-72
2021/08/04 02:47:09;;;;;;;6.88;4.13;;;;;;;17.88;93.11;96091.69;5059504;28;20753;-71
2021/08/04 02:49:37;;;;;;;8.50;4.20;;;;;;;18.05;92.89;96095.34;5055333;28;20211;-72
2021/08/04 02:52:05;;;;;;;8.63;4.38;;;;;;;17.93;92.66;96091.84;5060171;28;20224;-72
2021/08/04 02:54:32;;;;;;;8.13;4.35;;;;;;;17.88;92.77;96089.88;5059767;28;20193;-71
2021/08/04 02:56:58;;;;;;;8.20;4.25;;;;;;;17.79;93.11;96087.72;5058641;28;20201;-72
2021/08/04 02:59:25;;;;;;;11.63;4.53;;;;;;;17.89;92.53;96088.00;5059813;28;20204;-71
2021/08/04 03:01:51;;;;;;;10.07;4.70;;;;;;;17.87;92.48;96082.91;5059370;28;20228;-72
2021/08/04 03:04:18;;;;;;;5.60;3.90;;;;;;;17.85;92.32;96082.28;5059296;28;20216;-71
2021/08/04 03:06:45;;;;;;;9.90;4.60;;;;;;;17.95;92.44;96082.56;5058457;28;20228;-71
2021/08/04 03:09:12;;;;;;;8.88;4.38;;;;;;;17.85;92.35;96076.97;5059610;28;20203;-71
2021/08/04 03:11:39;;;;;;;5.75;3.97;;;;;;;17.78;92.71;96083.41;5058905;28;20231;-72
2021/08/04 03:14:05;;;;;;;6.97;4.10;;;;;;;17.87;92.38;96085.56;5059325;28;20200;-71
2021/08/04 03:16:32;;;;;;;8.13;4.22;;;;;;;17.82;92.00;96087.28;5058863;28;20216;-72
2021/08/04 03:18:58;;;;;;;6.28;4.22;;;;;;;17.82;91.77;96082.75;5058831;28;20201;-71
2021/08/04 03:21:25;;;;;;;8.57;4.15;;;;;;;17.83;91.85;96086.22;5059146;28;20224;-72
2021/08/04 03:23:53;;;;;;;7.03;3.80;;;;;;;17.92;91.67;96084.88;5059455;28;20208;-71
2021/08/04 03:26:19;;;;;;;11.75;4.10;;;;;;;17.69;91.86;96079.44;5058530;28;20220;-72
2021/08/04 03:28:46;;;;;;;9.88;4.80;;;;;;;17.71;91.59;96083.50;5059598;28;20197;-72
2021/08/04 03:31:12;;;;;;;8.05;4.40;;;;;;;17.67;91.42;96081.53;5058838;28;20210;-72
2021/08/04 03:33:38;;;;;;;7.38;4.25;;;;;;;17.70;91.56;96078.41;5059481;28;20200;-71
2021/08/04 03:36:05;;;;;;;9.43;4.57;;;;;;;17.71;91.69;96082.69;5058162;28;20208;-72
2021/08/04 03:38:31;;;;;;;7.32;3.92;;;;;;;17.67;91.73;96083.34;5059091;28;20205;-72
2021/08/04 03:40:59;;;;;;;12.32;4.90;;;;;;;17.75;91.51;96076.69;5056673;28;20196;-72
2021/08/04 03:43:26;;;;;;;8.80;4.55;;;;;;;17.61;91.57;96077.06;5059325;28;20204;-72
2021/08/04 03:45:52;;;;;;;11.45;4.65;;;;;;;17.61;91.64;96077.06;5058049;28;20696;-71
2021/08/04 03:48:19;;;;;;;7.00;4.40;;;;;;;17.63;91.04;96091.00;5059611;28;20204;-71
2021/08/04 03:50:45;;;;;;;8.82;4.68;;;;;;;17.48;91.48;96087.91;5058901;28;20201;-72
2021/08/04 03:53:12;;;;;;;11.25;4.60;;;;;;;17.51;91.51;96084.78;5058122;28;20231;-71
2021/08/04 03:55:38;;;;;;;8.60;4.38;;;;;;;17.59;91.39;96087.16;5058239;28;20985;-71
2021/08/04 03:58:06;;;;;;;8.68;4.75;;;;;;;17.69;91.48;96087.41;5058763;28;20241;-72
2021/08/04 04:00:32;;;;;;;8.00;4.88;;;;;;;17.58;90.87;96087.38;5057969;28;20203;-72
2021/08/04 04:02:59;;;;;;;13.90;6.53;;;;;;;17.57;90.92;96081.22;5058565;28;20220;-71
2021/08/04 04:05:25;;;;;;;9.02;6.25;;;;;;;17.53;91.18;96077.38;5057744;28;20233;-72
2021/08/04 04:07:52;;;;;;;10.77;5.55;;;;;;;17.56;90.99;96074.28;5057652;28;20196;-71
2021/08/04 04:10:18;;;;;;;13.25;5.25;;;;;;;17.59;90.54;96078.34;5058768;28;20206;-71
2021/08/04 04:12:45;;;;;;;8.98;4.95;;;;;;;17.49;91.04;96076.22;5058167;28;20219;-72
2021/08/04 04:15:13;;;;;;;8.02;4.57;;;;;;;17.68;90.76;96071.66;5057715;28;20216;-71
2021/08/04 04:17:39;;;;;;;8.40;4.32;;;;;;;17.60;90.80;96074.63;5058207;28;20197;-72
2021/08/04 04:20:07;;;;;;;6.75;4.57;;;;;;;17.61;91.28;96074.41;5058464;28;20205;-72
2021/08/04 04:22:34;;;;;;;11.88;4.57;;;;;;;17.58;91.07;96069.53;5057769;28;20767;-72
2021/08/04 04:25:00;;;;;;;6.72;4.35;;;;;;;17.57;91.46;96070.56;5057964;28;20205;-71
2021/08/04 04:27:27;;;;;;;7.70;4.25;;;;;;;17.59;91.78;96073.00;5057488;28;20216;-72
2021/08/04 04:29:53;;;;;;;10.20;4.38;;;;;;;17.67;91.57;96075.34;5057457;28;20712;-72
2021/08/04 04:32:21;;;;;;;9.50;4.38;;;;;;;17.74;92.25;96082.25;5057283;28;20220;-72
2021/08/04 04:34:48;;;;;;;8.30;4.15;;;;;;;17.66;91.98;96082.56;5057223;28;20263;-72
2021/08/04 04:37:14;;;;;;;8.32;4.38;;;;;;;17.71;90.99;96088.81;5057389;28;20197;-72
2021/08/04 04:39:40;;;;;;;8.40;4.28;;;;;;;17.74;91.25;96088.41;5055623;28;20196;-71
2021/08/04 04:42:07;;;;;;;8.63;4.50;;;;;;;17.69;90.98;96090.09;5057870;28;20224;-71
2021/08/04 04:44:33;;;;;;;5.93;4.15;;;;;;;17.68;91.23;96093.81;5057515;28;20200;-72
2021/08/04 04:47:00;;;;;;;8.77;3.83;;;;;;;17.71;91.43;96097.88;5056873;28;20221;-72
2021/08/04 04:49:28;;;;;;;12.77;4.05;;;;;;;17.92;91.39;96092.88;5057543;28;20201;-72
2021/08/04 04:51:54;;;;;;;6.95;4.60;;;;;;;17.78;90.94;96089.56;5058179;28;20216;-71
2021/08/04 04:54:21;;;;;;;8.80;4.20;;;;;;;18.00;90.60;96097.91;5057581;28;20225;-71
2021/08/04 04:56:47;;;;;;;7.43;3.90;;;;;;;17.95;90.52;96100.44;5056763;28;20664;-72
2021/08/04 04:59:13;;;;;;;8.10;4.35;;;;;;;17.78;91.53;96104.75;5057936;28;20204;-71
2021/08/04 05:01:40;;;;;;;9.93;4.80;;;;;;;17.95;90.95;96100.44;5056588;28;20216;-72
2021/08/04 05:04:07;;;;;;;9.07;4.93;;;;;;;18.00;91.26;96104.03;5057165;28;20413;-72
2021/08/04 05:06:35;;;;;;;9.93;5.00;;;;;;;18.13;89.79;96103.06;5056878;28;20224;-70
2021/08/04 05:09:02;;;;;;;8.13;4.82;;;;;;;17.97;90.10;96101.00;5057145;28;20207;-72
2021/08/04 05:11:29;;;;;;;6.68;4.32;;;;;;;18.00;91.37;96097.91;5057164;28;20318;-72
2021/08/04 05:13:55;;;;;;;8.25;4.43;;;;;;;18.01;91.50;96099.50;5057197;28;21226;-71
2021/08/04 05:16:21;;;;;;;7.03;4.50;;;;;;;18.07;90.45;96093.28;5055912;28;20581;-72
2021/08/04 05:18:48;;;;;;;13.10;4.63;;;;;;;18.18;89.61;96095.22;5056849;28;20200;-70
2021/08/04 05:21:14;;;;;;;8.70;5.00;;;;;;;18.14;90.00;96089.50;5057621;28;20220;-71
2021/08/04 05:23:42;;;;;;;15.82;5.22;;;;;;;18.20;89.96;96093.13;5057092;28;20196;-72
2021/08/04 05:26:09;;;;;;;8.05;4.85;;;;;;;18.05;90.49;96095.34;5056252;28;20277;-71
2021/08/04 05:28:35;;;;;;;8.20;4.40;;;;;;;18.15;90.97;96096.47;5057018;28;20208;-72
2021/08/04 05:31:02;;;;;;;8.43;4.53;;;;;;;17.86;90.69;96097.25;5056576;28;20197;-71
2021/08/04 05:33:28;;;;;;;13.45;4.97;;;;;;;18.06;90.39;96097.81;5058046;28;20215;-72
2021/08/04 05:35:55;;;;;;;9.40;5.20;;;;;;;18.13;91.42;96103.06;5056586;28;20221;-72
2021/08/04 05:38:21;;;;;;;12.85;4.50;;;;;;;17.95;91.37;96101.25;5057112;28;20204;-72
2021/08/04 05:40:49;;;;;;;7.03;4.25;;;;;;;18.24;90.33;96104.97;5054954;28;20227;-72
2021/08/04 05:43:16;;;;;;;10.73;4.40;;;;;;;17.97;91.60;96109.84;5057036;28;20227;-72
2021/08/04 05:45:42;;;;;;;7.97;4.38;;;;;;;17.96;90.50;96105.53;5055345;28;20197;-71
2021/08/04 05:48:08;;;;;;;7.10;4.03;;;;;;;17.58;92.26;96108.69;5057930;28;20204;-70
2021/08/04 05:50:35;;;;;;;8.68;3.85;;;;;;;17.94;90.13;96109.47;5057549;28;20204;-72
2021/08/04 05:53:02;;;;;;;8.18;3.80;;;;;;;18.35;89.82;96111.19;5056054;28;20224;-72
2021/08/04 05:55:28;;;;;;;7.25;3.88;;;;;;;18.32;90.17;96113.47;5056700;28;20291;-71
2021/08/04 05:57:56;;;;;;;8.95;4.15;;;;;;;18.56;90.81;96110.63;5057136;28;20200;-71
2021/08/04 06:00:23;;;;;;;7.68;3.80;;;;;;;18.44;89.50;96112.47;5056831;28;20204;-71
2021/08/04 06:02:49;;;;;;;9.00;3.53;;;;;;;18.25;87.54;96099.41;5056527;28;20239;-71
2021/08/04 06:05:15;;;;;;;6.22;3.47;;;;;;;18.47;88.41;96098.66;5056470;28;20200;-71
2021/08/04 06:07:43;;;;;;;5.80;3.20;;;;;;;18.37;87.88;96101.06;5055700;28;20723;-71
2021/08/04 06:10:11;;;;;;;8.38;3.38;;;;;;;18.35;87.72;96105.84;5056859;28;20216;-71
2021/08/04 06:12:37;;;;;;;6.22;3.60;;;;;;;18.69;86.61;96107.75;5056312;28;20224;-72
2021/08/04 06:15:06;;;;;;;7.97;3.08;;;;;;;18.71;87.74;96110.19;5056630;28;20215;-71
2021/08/04 06:17:33;;;;;;;6.60;3.72;;;;;;;18.73;87.31;96106.25;5056365;28;20205;-71
2021/08/04 06:19:59;;;;;;;8.30;3.95;;;;;;;18.90;88.04;96095.72;5056951;28;20693;-71
2021/08/04 06:22:26;;;;;;;6.65;3.35;;;;;;;19.05;86.42;96104.88;5056650;28;20596;-71
2021/08/04 06:24:52;;;;;;;7.88;3.80;;;;;;;19.17;86.20;96092.38;5056231;28;20219;-71
2021/08/04 06:27:18;;;;;;;6.38;3.50;;;;;;;19.01;86.07;96101.06;5055747;28;20220;-71
2021/08/04 06:29:45;;;;;;;7.53;3.75;;;;;;;19.12;85.13;96090.41;5056769;28;20203;-71
2021/08/04 06:32:15;;;;;;;11.07;3.58;;;;;;;18.91;86.29;96095.47;5056245;28;20230;-72
2021/08/04 06:34:41;;;;;;;9.10;3.80;;;;;;;19.03;86.69;96089.09;5056131;28;20286;-72
2021/08/04 06:37:08;;;;;;;7.30;4.10;;;;;;;19.20;86.60;96097.25;5055952;28;20219;-72
2021/08/04 06:39:34;;;;;;;10.23;4.07;;;;;;;19.36;85.12;96091.19;5053245;28;20208;-72
2021/08/04 06:42:01;;;;;;;6.55;3.53;;;;;;;18.79;84.67;96101.84;5056173;28;20221;-71
2021/08/04 06:44:28;;;;;;;4.85;3.10;;;;;;;18.95;83.94;96110.81;5055731;28;20232;-71
2021/08/04 06:46:58;;;;;;;7.68;3.05;;;;;;;18.90;83.96;96107.19;5055437;28;20221;-72
2021/08/04 06:49:26;;;;;;;6.40;3.00;;;;;;;18.93;82.95;96114.75;5055999;28;20199;-72
2021/08/04 06:51:53;;;;;;;5.18;2.88;;;;;;;18.73;83.68;96113.47;5055582;28;20224;-72
2021/08/04 06:54:20;;;;;;;7.50;3.05;;;;;;;18.57;83.99;96106.94;5058244;28;20708;-71
2021/08/04 06:56:46;;;;;;;4.13;2.63;;;;;;;18.54;83.62;96110.03;5058768;28;20224;-71
2021/08/04 06:59:13;;;;;;;6.00;2.70;;;;;;;18.86;82.52;96098.03;5060092;28;20201;-72
2021/08/04 07:01:39;;;;;;;5.68;2.83;;;;;;;18.76;80.91;96104.97;5060440;28;20236;-72
2021/08/04 07:04:06;;;;;;;4.00;2.70;;;;;;;19.21;80.49;96104.25;5059049;28;20205;-72
2021/08/04 07:06:34;;;;;;;6.20;2.70;;;;;;;19.53;80.20;96100.94;5058883;28;20231;-72
2021/08/04 07:09:00;;;;;;;3.55;2.35;;;;;;;19.49;80.21;96112.31;5060502;28;20205;-71
2021/08/04 07:11:27;;;;;;;6.00;2.72;;;;;;;19.46;78.54;96115.47;5059108;28;20220;-72
2021/08/04 07:13:53;;;;;;;3.28;2.03;;;;;;;19.26;80.92;96120.38;5058704;28;20233;-71
2021/08/04 07:16:20;;;;;;;4.85;2.65;;;;;;;19.68;78.33;96107.41;5057946;28;20205;-71
2021/08/04 07:18:46;;;;;;;4.68;2.33;;;;;;;19.78;80.88;96106.78;5058874;28;20562;-72
2021/08/04 07:21:13;;;;;;;3.22;2.10;;;;;;;19.07;79.44;96108.19;5058248;28;20201;-71
2021/08/04 07:23:46;;;;;;;6.43;2.42;;;;;;;19.56;77.39;96105.00;5059458;28;20566;-71
2021/08/04 07:26:13;;;;;;;4.07;2.95;;;;;;;19.63;81.16;96115.31;5058253;28;20688;-72
2021/08/04 07:28:41;;;;;;;4.88;2.30;;;;;;;19.58;76.66;96111.75;5059406;28;20200;-71
2021/08/04 07:31:08;;;;;;;4.22;2.38;;;;;;;19.44;77.41;96114.91;5058746;28;20196;-72
2021/08/04 07:33:34;;;;;;;4.88;2.78;;;;;;;19.37;78.31;96124.88;5058960;28;20205;-71
2021/08/04 07:36:01;;;;;;;5.18;2.30;;;;;;;19.46;76.32;96118.16;5057596;28;20208;-71
2021/08/04 07:38:27;;;;;;;4.15;2.35;;;;;;;19.41;77.60;96116.19;5059329;28;20549;-72
2021/08/04 07:40:58;;;;;;;3.55;2.30;;;;;;;19.85;76.15;96105.63;5056371;28;20204;-71
2021/08/04 07:43:24;;;;;;;3.67;2.30;;;;;;;19.82;76.87;96106.09;5059624;28;20201;-71
2021/08/04 07:45:51;;;;;;;6.47;2.40;;;;;;;20.07;78.90;96106.63;5057899;28;20204;-72
2021/08/04 07:48:17;;;;;;;4.22;2.30;;;;;;;19.99;75.89;96106.22;5059079;28;21050;-72
2021/08/04 07:50:44;;;;;;;6.45;2.75;;;;;;;19.70;75.54;96104.50;5058584;28;20204;-71
2021/08/04 07:53:10;;;;;;;3.15;2.20;;;;;;;19.48;76.50;96106.16;5058664;28;20686;-72
2021/08/04 07:55:37;;;;;;;5.22;2.45;;;;;;;19.80;76.38;96118.88;5057875;28;20201;-71
2021/08/04 07:58:05;;;;;;;5.20;2.58;;;;;;;19.82;75.89;96116.00;5059121;28;20256;-71
2021/08/04 08:00:31;;;;;;;2.83;2.10;;;;;;;20.08;73.46;96115.47;5058008;28;20196;-72
2021/08/04 08:02:58;;;;;;;2.75;2.17;;;;;;;20.29;70.54;96111.09;5058634;28;20223;-71
2021/08/04 08:05:24;;;;;;;4.38;2.47;;;;;;;20.24;71.27;96118.22;5057733;28;20211;-71
2021/08/04 08:07:51;;;;;;;3.92;2.10;;;;;;;20.65;72.29;96112.53;5057640;28;20220;-72
2021/08/04 08:10:21;;;;;;;5.93;2.55;;;;;;;20.70;70.80;96107.25;5057417;28;20201;-72
2021/08/04 08:12:48;;;;;;;4.70;2.30;;;;;;;20.79;67.99;96111.19;5058761;28;20269;-72
2021/08/04 08:15:16;;;;;;;4.60;2.40;;;;;;;21.00;68.32;96106.72;5057303;28;20684;-72
2021/08/04 08:17:43;;;;;;;3.65;1.95;;;;;;;20.56;70.20;96100.59;5058036;28;20209;-71
2021/08/04 08:20:11;;;;;;;4.00;2.40;;;;;;;20.51;70.57;96098.63;5058682;28;20595;-71
2021/08/04 08:22:38;;;;;;;3.83;2.25;;;;;;;21.06;68.14;96102.25;5058125;28;20760;-72
2021/08/04 08:25:06;;;;;;;5.55;2.35;;;;;;;20.93;67.40;96108.75;5058413;28;20211;-72
2021/08/04 08:27:33;;;;;;;4.20;2.40;;;;;;;20.65;67.54;96104.50;5056864;28;20224;-72
2021/08/04 08:29:59;;;;;;;3.20;2.20;;;;;;;20.97;66.94;96099.16;5058034;28;20502;-71
2021/08/04 08:32:27;;;;;;;6.68;2.75;;;;;;;20.88;64.79;96089.13;5057326;28;20231;-72
2021/08/04 08:34:53;;;;;;;5.80;2.42;;;;;;;20.82;66.70;96089.28;5058399;28;20200;-72
2021/08/04 08:37:20;;;;;;;2.90;2.10;;;;;;;21.24;66.10;96084.03;5056519;28;20200;-72
2021/08/04 08:39:46;;;;;;;4.40;1.90;;;;;;;20.97;65.75;96088.44;5054495;28;20201;-72
2021/08/04 08:42:13;;;;;;;3.00;2.00;;;;;;;21.26;66.43;96087.28;5057659;28;20225;-72
2021/08/04 08:44:40;;;;;;;3.15;1.98;;;;;;;21.43;63.95;96080.03;5057789;28;20204;-71
2021/08/04 08:47:07;;;;;;;2.83;1.83;;;;;;;21.76;65.02;96082.63;5056738;28;20224;-71
2021/08/04 08:49:35;;;;;;;3.83;2.35;;;;;;;21.81;63.19;96077.34;5057774;28;20196;-70
2021/08/04 08:52:02;;;;;;;5.53;2.50;;;;;;;21.59;66.55;96071.16;5057968;28;20221;-70
2021/08/04 08:54:29;;;;;;;8.05;4.72;;;;;;;21.87;69.02;96073.63;5057658;28;20208;-70
2021/08/04 08:56:56;;;;;;;2.67;1.90;;;;;;;22.23;68.34;96077.28;5056779;28;20651;-70
2021/08/04 08:59:22;;;;;;;4.35;2.75;;;;;;;21.73;66.05;96072.41;5057214;28;20197;-70
2021/08/04 09:01:49;;;;;;;2.65;1.90;;;;;;;22.19;65.46;96070.00;5056669;28;20720;-70
2021/08/04 09:04:16;;;;;;;5.55;2.40;;;;;;;22.18;63.88;96076.44;5056905;28;20227;-70
2021/08/04 09:06:47;;;;;;;4.38;2.25;;;;;;;22.26;65.03;96073.31;5055696;28;20204;-70
2021/08/04 09:09:18;;;;;;;4.88;2.30;;;;;;;21.77;66.70;96084.28;5057473;28;20592;-70
2021/08/04 09:11:45;;;;;;;2.90;2.05;;;;;;;22.09;66.28;96068.00;5057007;28;20220;-70
2021/08/04 09:14:12;;;;;;;3.70;2.38;;;;;;;22.16;65.93;96068.63;5057686;28;20269;-70
2021/08/04 09:16:39;;;;;;;3.53;2.08;;;;;;;21.86;65.17;96072.03;5056053;28;20588;-70
2021/08/04 09:19:19;;;;;;;2.97;1.92;;;;;;;21.45;64.12;96061.84;5057017;28;20204;-70
2021/08/04 09:22:04;;;;;;;7.25;2.08;;;;;;;22.33;65.29;96057.84;5057155;28;21044;-70
2021/08/04 09:24:30;;;;;;;4.40;1.70;;;;;;;22.70;63.45;96054.13;5057547;28;20200;-70
2021/08/04 09:26:57;;;;;;;5.30;1.90;;;;;;;22.80;61.85;96049.66;5056271;28;20204;-70
2021/08/04 09:29:23;;;;;;;4.70;2.13;;;;;;;22.36;60.60;96047.38;5057192;28;20231;-70
2021/08/04 09:31:52;;;;;;;3.80;2.20;;;;;;;22.90;60.96;96051.63;5057519;28;20228;-70
2021/08/04 09:34:30;;;;;;;4.60;2.25;;;;;;;22.73;60.14;96056.31;5056671;28;20197;-70
2021/08/04 09:37:02;;;;;;;3.67;2.03;;;;;;;23.00;59.77;96049.03;5056318;28;20232;-70
2021/08/04 09:39:29;;;;;;;3.03;2.00;;;;;;;22.61;57.26;96039.56;5053188;28;20211;-70
2021/08/04 09:41:55;;;;;;;2.35;1.70;;;;;;;22.57;58.88;96046.50;5056609;28;20224;-70
2021/08/04 09:44:22;;;;;;;4.07;1.92;;;;;;;22.71;60.61;96039.66;5056331;28;20204;-70
2021/08/04 09:46:48;;;;;;;2.53;1.70;;;;;;;22.83;58.00;96032.22;5056338;28;20219;-70
2021/08/04 09:49:18;;;;;;;4.15;2.20;;;;;;;23.09;57.27;96037.53;5056304;28;20671;-70
2021/08/04 09:51:44;;;;;;;4.55;1.83;;;;;;;22.80;57.80;96038.09;5057252;28;20216;-70
2021/08/04 09:54:14;;;;;;;2.72;1.88;;;;;;;22.93;56.71;96033.09;5056767;28;20200;-70
2021/08/04 09:56:52;;;;;;;7.22;3.22;;;;;;;22.71;56.16;96028.91;5056135;28;20200;-70
2021/08/04 09:59:20;;;;;;;2.72;1.70;;;;;;;22.83;58.01;96030.31;5056478;28;20246;-70
2021/08/04 10:01:47;;;;;;;3.22;1.85;;;;;;;22.88;57.76;96033.03;5056398;28;20220;-70
2021/08/04 10:04:15;;;;;;;3.45;1.80;;;;;;;22.97;57.33;96039.56;5056812;28;20659;-70
2021/08/04 10:06:43;;;;;;;3.08;1.70;;;;;;;23.28;55.86;96029.84;5055840;28;21087;-70
2021/08/04 10:09:14;;;;;;;2.95;1.85;;;;;;;23.12;54.65;96030.84;5056634;28;20231;-70
2021/08/04 10:11:43;;;;;;;4.47;2.20;;;;;;;23.22;55.89;96030.88;5057055;28;20224;-70
2021/08/04 10:14:13;;;;;;;2.10;1.70;;;;;;;23.85;54.98;96029.63;5056533;28;20213;-70
2021/08/04 10:16:40;;;;;;;2.80;1.83;;;;;;;23.91;57.65;96031.25;5056146;28;20301;-70
2021/08/04 10:19:07;;;;;;;6.47;1.60;;;;;;;24.22;53.56;96024.88;5056260;28;20207;-71
2021/08/04 10:21:34;;;;;;;2.45;1.48;;;;;;;24.43;52.68;96023.88;5056072;28;20224;-70
2021/08/04 10:24:02;;;;;;;2.22;1.70;;;;;;;24.70;54.64;96023.34;5055209;28;20213;-70
2021/08/04 10:26:30;;;;;;;4.78;2.25;;;;;;;24.44;53.61;96020.91;5055992;28;20570;-70
2021/08/04 10:28:57;;;;;;;2.95;1.80;;;;;;;24.20;56.79;96029.75;5059767;28;20227;-70
2021/08/04 10:31:24;;;;;;;6.85;2.13;;;;;;;23.91;53.03;96025.09;5059977;28;20217;-70
2021/08/04 10:33:51;;;;;;;3.42;1.80;;;;;;;23.64;55.75;96025.22;5060389;28;20204;-70
2021/08/04 10:36:20;;;;;;;3.47;1.67;;;;;;;23.51;53.35;96019.47;5060108;28;20569;-70
2021/08/04 10:38:48;;;;;;;2.13;1.55;;;;;;;23.18;55.50;96025.25;5056968;28;20212;-70
2021/08/04 10:41:17;;;;;;;3.28;1.83;;;;;;;23.43;52.84;96022.69;5059549;28;20232;-70
2021/08/04 10:43:47;;;;;;;6.88;1.90;;;;;;;23.37;53.70;96019.16;5059540;28;20196;-70
2021/08/04 10:46:44;;;;;;;4.63;1.48;;;;;;;24.06;55.84;96012.47;5059104;28;20207;-70
2021/08/04 10:49:32;;;;;;;2.55;1.70;;;;;;;24.20;55.99;96000.91;5059986;28;20224;-70
2021/08/04 10:52:23;;;;;;;2.00;1.50;;;;;;;24.74;54.97;96002.84;5055260;28;20869;-70
2021/08/04 10:55:12;;;;;;;3.30;1.90;;;;;;;24.92;52.66;95996.09;5059374;28;20576;-70
2021/08/04 10:58:12;;;;;;;3.17;1.63;;;;;;;24.80;53.94;96004.47;5060316;28;20261;-70
2021/08/04 11:00:40;;;;;;;2.75;1.80;;;;;;;24.42;52.05;95996.13;5056836;28;20200;-71
2021/08/04 11:03:44;;;;;;;5.40;1.77;;;;;;;24.14;51.46;96003.88;5059545;28;20704;-70
2021/08/04 11:06:10;;;;;;;2.60;1.80;;;;;;;24.74;52.71;95994.78;5059015;28;20262;-70
2021/08/04 11:08:38;;;;;;;5.57;2.00;;;;;;;24.96;53.58;95989.91;5059206;28;20227;-70
2021/08/04 11:11:05;;;;;;;4.68;1.65;;;;;;;24.69;53.66;95992.09;5059547;28;20201;-71
2021/08/04 11:13:53;;;;;;;2.30;1.63;;;;;;;25.06;53.03;95983.72;5059676;28;20200;-70
2021/08/04 11:16:29;;;;;;;2.42;1.63;;;;;;;25.04;52.28;95985.84;5058760;28;20590;-71
2021/08/04 11:19:10;;;;;;;3.00;1.88;;;;;;;25.25;52.71;95978.28;5059397;28;20200;-70
2021/08/04 11:21:38;;;;;;;2.15;1.60;;;;;;;25.19;51.50;95978.59;5059412;28;20227;-70
2021/08/04 11:24:06;;;;;;;2.70;1.77;;;;;;;25.40;50.78;95975.53;5059860;28;20208;-70
2021/08/04 11:26:37;;;;;;;3.45;1.70;;;;;;;25.02;54.09;95979.94;5057860;28;20243;-71
2021/08/04 11:29:04;;;;;;;2.58;1.52;;;;;;;24.80;50.14;95971.34;5059344;28;20229;-70
2021/08/04 11:31:32;;;;;;;2.83;1.70;;;;;;;24.55;54.99;95986.72;5058746;28;20220;-71
2021/08/04 11:34:18;;;;;;;2.15;1.70;;;;;;;25.22;52.54;95970.72;5058713;28;20200;-71
2021/08/04 11:36:46;;;;;;;2.55;1.63;;;;;;;25.34;53.52;95967.72;5057832;28;20208;-71